Date,TemperatureHighF,TemperatureAvgF,TemperatureLowF,DewpointHighF,DewpointAvgF,DewpointLowF,HumidityHigh,HumidityAvg,HumidityLow,PressureMaxIn,PressureMinIn,WindSpeedMaxMPH,WindSpeedAvgMPH,GustSpeedMaxMPH,PrecipitationSumIn
2014-1-1,69.1,59.3,51.5,64.4,58.5,51.5,100,98,85,30.04,29.93,3,0,14,0.00
2014-1-2,69.1,59.7,53.8,63.0,58.4,53.8,100,96,80,29.99,29.81,7,2,14,0.01
2014-1-3,65.6,59.3,56.6,61.2,58.1,56.0,100,96,82,29.90,29.79,6,2,14,0.07
2014-1-4,58.6,55.1,52.5,58.2,55.0,52.5,100,100,96,30.01,29.87,5,2,14,0.13
2014-1-5,62.6,54.0,48.0,59.1,53.7,48.0,100,99,87,30.05,29.90,4,2,14,0.03
2014-1-6,61.0,51.3,43.7,55.6,49.7,43.7,100,95,76,30.15,30.02,6,2,14,0.01
2014-1-7,64.5,54.3,48.1,56.1,51.0,44.1,99,90,62,30.16,30.00,9,4,14,0.00
2014-1-8,64.8,54.8,48.3,58.5,52.6,46.6,100,92,73,30.10,29.94,6,2,14,0.02
2014-1-9,67.9,53.3,44.4,59.7,51.6,44.4,100,94,74,30.12,29.97,3,0,14,0.01
2014-1-10,70.2,61.7,53.2,61.9,58.1,53.2,100,89,67,30.06,29.93,3,1,14,0.01
2014-1-11,68.8,59.2,51.5,63.6,58.0,51.4,100,96,81,30.05,29.96,4,1,14,0.17
2014-1-12,71.2,60.4,54.3,64.3,57.9,53.5,98,92,54,30.09,29.97,4,1,14,0.02
2014-1-13,71.4,60.0,52.0,63.6,57.8,51.5,98,93,74,30.07,29.90,3,1,14,0.01
2014-1-14,73.2,59.1,52.2,62.0,56.4,51.7,98,92,60,30.00,29.87,4,1,14,0.02
2014-1-15,68.5,56.8,48.8,60.1,54.7,48.3,98,93,67,30.02,29.90,3,1,14,0.08
2014-1-16,69.4,58.1,47.9,62.1,56.0,47.3,98,93,73,30.06,29.94,3,1,14,0.01
2014-1-17,70.8,61.1,51.0,62.2,57.6,50.2,98,89,67,30.10,29.98,3,0,14,0.00
2014-1-18,71.5,58.7,49.2,61.5,55.7,48.7,98,91,60,30.11,29.99,3,0,14,0.00
2014-1-19,71.1,58.8,49.3,63.0,57.1,48.8,98,94,70,30.04,29.93,4,1,14,0.02
2014-1-20,67.6,60.2,53.4,62.8,58.4,52.7,98,94,78,30.01,29.90,3,1,14,0.01
2014-1-21,70.5,60.6,53.9,62.7,58.0,52.8,98,92,68,29.97,29.87,6,3,14,0.01
2014-1-22,64.3,59.3,57.2,62.4,58.3,56.4,98,96,89,29.89,29.77,6,3,14,0.03
2014-1-23,64.8,55.1,49.4,57.8,52.8,48.6,98,92,74,30.00,29.87,4,1,14,0.00
2014-1-24,67.7,54.7,43.4,56.9,51.8,42.9,98,90,65,30.02,29.88,4,1,14,0.01
2014-1-25,65.2,57.9,52.2,58.8,55.3,50.8,97,91,76,29.92,29.82,6,2,14,0.00
2014-1-26,73.5,58.7,48.0,61.5,54.6,47.5,98,88,56,29.99,29.83,3,1,14,0.01
2014-1-27,70.6,58.0,47.6,62.2,55.6,47.1,98,92,63,30.03,29.90,4,1,14,0.06
2014-1-28,58.7,54.8,52.6,58.1,54.3,52.3,99,98,98,30.16,29.96,8,4,14,0.92
2014-1-29,68.4,56.8,49.0,61.2,55.0,48.6,99,94,73,30.14,29.98,6,2,14,0.04
2014-1-30,70.4,58.0,51.7,62.5,56.5,51.4,99,95,73,30.07,29.91,4,1,14,0.97
2014-1-31,68.7,59.3,51.0,63.3,57.6,50.7,99,94,80,30.02,29.87,5,2,14,0.01